Time;durP1;ratioP1;P1;durP2;ratioP2;P2;SDS_P1;SDS_P2;PMS_P1;PMS_P2;Temp;Humidity;BMP_temperature;BMP_pressure;BME280_temperature;BME280_humidity;BME280_pressure;Samples;Min_cycle;Max_cycle;Signal;HPM_P1;HPM_P2
2023/09/15 00:01:41;;;;;;;16.00;7.20;;;;;;;21.35;68.45;101092.36;107330;1254;112840;-67
2023/09/15 00:04:11;;;;;;;18.90;7.80;;;;;;;21.36;68.36;101085.64;107378;1254;109803;-67
2023/09/15 00:06:40;;;;;;;15.60;7.60;;;;;;;21.37;68.23;101088.46;107354;1254;106034;-66
2023/09/15 00:09:14;;;;;;;12.80;7.70;;;;;;;21.39;68.52;101086.58;107355;1254;99252;-67
2023/09/15 00:11:43;;;;;;;15.90;8.10;;;;;;;21.40;68.36;101081.32;107370;1254;99076;-65
2023/09/15 00:14:14;;;;;;;17.40;7.20;;;;;;;21.42;68.37;101084.55;107411;1258;112196;-66
2023/09/15 00:16:43;;;;;;;16.40;7.20;;;;;;;21.41;68.29;101087.16;107364;1257;110084;-65
2023/09/15 00:19:16;;;;;;;18.10;7.30;;;;;;;21.38;68.50;101089.38;107379;1256;108296;-66
2023/09/15 00:21:49;;;;;;;12.80;7.00;;;;;;;21.35;68.52;101096.08;107339;1256;99207;-66
2023/09/15 00:24:17;;;;;;;11.10;7.60;;;;;;;21.33;68.74;101099.34;107377;1257;99162;-66
2023/09/15 00:26:45;;;;;;;17.10;8.10;;;;;;;21.28;69.42;101098.56;107380;1255;114008;-66
2023/09/15 00:29:14;;;;;;;12.70;7.60;;;;;;;21.16;69.05;101096.45;107347;1257;110139;-66
2023/09/15 00:31:42;;;;;;;21.60;8.20;;;;;;;21.12;69.00;101094.77;107248;1258;107572;-65
2023/09/15 00:34:14;;;;;;;15.00;7.50;;;;;;;21.14;69.21;101096.21;107258;1254;99932;-67
2023/09/15 00:36:45;;;;;;;15.20;8.40;;;;;;;21.14;69.22;101099.49;107275;1254;99710;-66
2023/09/15 00:39:14;;;;;;;13.20;8.60;;;;;;;21.16;69.53;101102.95;107393;1254;112334;-67
2023/09/15 00:41:43;;;;;;;20.20;10.20;;;;;;;21.14;69.48;101102.52;107376;1254;109641;-66
2023/09/15 00:44:11;;;;;;;20.50;8.70;;;;;;;21.14;69.32;101104.92;107349;1258;108579;-65
2023/09/15 00:46:41;;;;;;;15.50;8.50;;;;;;;21.14;69.39;101104.72;107406;1254;99178;-66
2023/09/15 00:49:10;;;;;;;19.10;8.40;;;;;;;21.14;69.32;101108.73;107312;1254;99706;-64
2023/09/15 00:51:40;;;;;;;19.50;8.40;;;;;;;21.15;69.53;101110.16;107387;1254;112797;-67
2023/09/15 00:54:09;;;;;;;20.30;8.90;;;;;;;21.10;69.39;101111.29;107394;1254;110059;-65
2023/09/15 00:56:37;;;;;;;20.80;9.00;;;;;;;21.08;69.58;101110.77;107267;1260;108642;-66
2023/09/15 00:59:08;;;;;;;14.60;8.20;;;;;;;21.05;69.72;101106.62;107381;1254;99191;-65
2023/09/15 01:01:39;;;;;;;15.70;8.20;;;;;;;21.03;69.77;101116.41;107406;1258;99850;-64
2023/09/15 01:04:10;;;;;;;20.70;9.20;;;;;;;21.01;69.78;101119.76;107397;1254;113138;-66
2023/09/15 01:06:42;;;;;;;20.70;8.20;;;;;;;21.00;69.89;101123.31;107388;1254;108817;-65
2023/09/15 01:09:11;;;;;;;21.30;8.70;;;;;;;21.00;69.90;101126.19;107379;1257;107645;-65
2023/09/15 01:11:39;;;;;;;17.00;8.90;;;;;;;21.00;70.00;101127.31;107358;1257;99092;-65
2023/09/15 01:14:07;;;;;;;21.00;10.20;;;;;;;20.97;70.30;101127.55;107399;1254;99045;-66
2023/09/15 01:16:46;;;;;;;18.20;10.40;;;;;;;20.89;70.22;101124.86;107381;1254;113726;-65
2023/09/15 01:19:55;;;;;;;13.50;8.90;;;;;;;20.85;70.51;101125.04;107397;1254;109837;-65
2023/09/15 01:22:45;;;;;;;20.90;10.40;;;;;;;20.80;70.32;101128.52;107363;1254;108460;-65
2023/09/15 01:25:39;;;;;;;13.10;8.60;;;;;;;20.80;70.57;101135.84;107315;1260;99262;-65
2023/09/15 01:28:45;;;;;;;18.50;8.20;;;;;;;20.81;70.70;101140.40;107350;1258;99074;-66
2023/09/15 01:31:15;;;;;;;21.70;9.80;;;;;;;20.80;70.69;101146.08;107401;1254;113247;-65
2023/09/15 01:33:45;;;;;;;17.20;9.30;;;;;;;20.79;70.63;101148.30;107410;1254;110079;-66
2023/09/15 01:36:13;;;;;;;13.20;9.40;;;;;;;20.79;70.84;101149.05;107348;1254;107679;-65
2023/09/15 01:38:41;;;;;;;18.50;9.30;;;;;;;20.77;70.97;101152.27;107368;1254;99761;-66
2023/09/15 01:41:10;;;;;;;16.70;8.90;;;;;;;20.75;70.94;101155.02;107390;1254;99102;-65
2023/09/15 01:43:38;;;;;;;23.50;10.00;;;;;;;20.75;70.83;101157.21;107358;1254;112347;-66
2023/09/15 01:46:07;;;;;;;16.50;9.90;;;;;;;20.74;70.87;101160.17;107401;1254;109408;-66
2023/09/15 01:48:36;;;;;;;19.10;9.50;;;;;;;20.73;70.83;101156.61;107414;1254;108491;-66
2023/09/15 01:51:05;;;;;;;21.60;10.40;;;;;;;20.72;71.55;101155.80;107197;1257;99201;-66
2023/09/15 01:53:35;;;;;;;19.20;11.00;;;;;;;20.59;72.75;101157.25;107299;1257;99061;-66
2023/09/15 01:56:04;;;;;;;19.80;11.20;;;;;;;20.41;73.62;101163.79;107391;1254;112331;-65
2023/09/15 01:58:32;;;;;;;20.50;11.40;;;;;;;20.22;74.87;101169.81;107439;1254;108221;-66
2023/09/15 02:01:00;;;;;;;20.70;11.40;;;;;;;20.04;76.10;101171.59;107388;1254;108214;-66
2023/09/15 02:03:29;;;;;;;16.50;11.50;;;;;;;19.94;76.14;101162.64;107368;1254;99170;-66
2023/09/15 02:06:04;;;;;;;18.80;11.00;;;;;;;19.91;76.75;101164.59;107403;1254;99089;-67
2023/09/15 02:08:33;;;;;;;23.00;11.50;;;;;;;19.88;76.75;101161.41;107363;1254;112846;-64
2023/09/15 02:11:01;;;;;;;16.10;11.90;;;;;;;19.91;76.72;101166.16;107420;1254;109221;-65
2023/09/15 02:13:30;;;;;;;19.80;11.80;;;;;;;19.94;76.70;101171.66;107275;1254;108524;-65
2023/09/15 02:15:58;;;;;;;19.30;12.40;;;;;;;19.90;78.77;101171.23;107351;1254;99271;-66
2023/09/15 02:18:26;;;;;;;18.60;12.20;;;;;;;19.80;78.28;101172.86;107371;1255;99084;-67
2023/09/15 02:20:55;;;;;;;17.30;11.70;;;;;;;19.82;77.69;101177.15;107372;1254;112766;-65
2023/09/15 02:23:24;;;;;;;18.50;12.50;;;;;;;19.82;79.50;101176.30;107436;1259;109958;-66
2023/09/15 02:25:53;;;;;;;20.50;13.20;;;;;;;19.78;78.40;101182.95;107312;1260;108228;-65
2023/09/15 02:28:21;;;;;;;27.00;12.90;;;;;;;19.76;79.30;101184.30;107350;1257;99399;-66
2023/09/15 02:30:49;;;;;;;21.50;12.90;;;;;;;19.68;80.28;101190.39;107331;1258;99073;-65
2023/09/15 02:33:19;;;;;;;16.00;12.20;;;;;;;19.55;81.68;101190.42;107222;1257;113195;-68
2023/09/15 02:35:47;;;;;;;18.00;13.00;;;;;;;19.46;82.62;101186.25;107373;1258;109753;-67
2023/09/15 02:38:16;;;;;;;22.30;13.10;;;;;;;19.40;83.41;101184.79;107288;1260;108234;-66
2023/09/15 02:40:44;;;;;;;18.00;12.80;;;;;;;19.35;83.52;101188.83;107253;1255;99403;-66
2023/09/15 02:43:13;;;;;;;23.50;13.70;;;;;;;19.33;83.57;101187.37;107378;1254;99326;-67
2023/09/15 02:45:42;;;;;;;22.50;13.00;;;;;;;19.36;82.61;101191.66;107364;1253;112530;-66
2023/09/15 02:48:10;;;;;;;26.50;13.40;;;;;;;19.38;83.58;101198.31;107265;1257;109696;-65
2023/09/15 02:50:43;;;;;;;25.90;12.20;;;;;;;19.41;82.93;101202.36;107399;1254;106506;-68
2023/09/15 02:53:12;;;;;;;18.20;12.80;;;;;;;19.43;83.35;101203.60;107377;1254;99217;-65
2023/09/15 02:55:40;;;;;;;19.40;12.30;;;;;;;19.39;83.09;101205.09;107291;1259;98322;-65
2023/09/15 02:58:09;;;;;;;15.60;12.20;;;;;;;19.39;83.77;101203.12;107400;1255;113094;-66
2023/09/15 03:00:38;;;;;;;14.20;11.50;;;;;;;19.37;83.59;101202.41;107359;1258;109369;-66
2023/09/15 03:03:07;;;;;;;23.30;11.60;;;;;;;19.36;83.58;101202.95;107312;1257;107962;-66
2023/09/15 03:05:35;;;;;;;22.10;11.50;;;;;;;19.36;83.90;101201.86;107201;1255;99211;-67
2023/09/15 03:08:04;;;;;;;18.50;12.20;;;;;;;19.33;84.13;101204.16;107270;1260;99378;-66
2023/09/15 03:10:36;;;;;;;18.40;12.20;;;;;;;19.34;83.64;101205.76;107445;1254;113265;-65
2023/09/15 03:13:05;;;;;;;24.80;12.50;;;;;;;19.36;83.68;101207.73;107289;1255;109778;-67
2023/09/15 03:15:35;;;;;;;20.30;12.30;;;;;;;19.40;83.41;101206.08;107372;1260;109324;-65
2023/09/15 03:18:04;;;;;;;22.00;12.50;;;;;;;19.42;83.14;101208.34;107259;1254;99217;-67
2023/09/15 03:20:35;;;;;;;19.30;12.20;;;;;;;19.46;82.69;101207.02;107365;1257;99191;-66
2023/09/15 03:23:04;;;;;;;14.40;10.80;;;;;;;19.51;82.59;101212.39;107385;1258;113525;-66
2023/09/15 03:25:33;;;;;;;15.40;11.80;;;;;;;19.52;82.61;101217.70;107378;1254;109697;-66
2023/09/15 03:28:01;;;;;;;23.60;13.20;;;;;;;19.51;82.69;101223.30;107207;1254;108601;-66
2023/09/15 03:30:30;;;;;;;19.60;11.60;;;;;;;19.48;83.05;101226.73;107357;1259;99203;-66
2023/09/15 03:33:00;;;;;;;17.30;11.20;;;;;;;19.47;82.23;101227.85;107384;1254;99204;-67
2023/09/15 03:35:29;;;;;;;20.10;12.70;;;;;;;19.49;83.23;101230.07;107393;1257;113388;-67
2023/09/15 03:37:58;;;;;;;19.40;13.50;;;;;;;19.42;83.63;101228.73;107355;1260;109330;-66
2023/09/15 03:40:26;;;;;;;20.80;11.80;;;;;;;19.37;83.11;101230.45;107317;1260;108096;-66
2023/09/15 03:42:55;;;;;;;17.40;10.10;;;;;;;19.40;82.75;101233.90;107356;1258;99294;-65
2023/09/15 03:45:24;;;;;;;20.70;10.90;;;;;;;19.47;82.86;101236.04;107229;1256;99720;-66
2023/09/15 03:47:52;;;;;;;20.00;11.20;;;;;;;19.49;82.38;101243.34;107385;1254;113299;-66
2023/09/15 03:50:21;;;;;;;13.70;10.10;;;;;;;19.52;82.20;101246.63;107364;1258;109088;-65
2023/09/15 03:52:50;;;;;;;13.50;9.70;;;;;;;19.52;82.34;101251.40;107368;1259;108305;-66
2023/09/15 03:55:19;;;;;;;14.50;9.40;;;;;;;19.47;81.92;101254.17;107212;1261;99153;-67
2023/09/15 03:57:49;;;;;;;12.70;9.40;;;;;;;19.49;81.92;101255.38;107262;1260;99169;-65
2023/09/15 04:00:18;;;;;;;16.80;9.90;;;;;;;19.52;81.51;101255.73;107277;1263;112715;-66
2023/09/15 04:02:46;;;;;;;13.70;9.30;;;;;;;19.59;81.20;101263.02;107294;1254;109924;-66
2023/09/15 04:05:18;;;;;;;14.50;9.30;;;;;;;19.65;81.03;101264.05;107400;1255;108630;-67
2023/09/15 04:07:47;;;;;;;13.70;9.60;;;;;;;19.69;80.94;101273.77;107348;1259;99281;-67
2023/09/15 04:10:15;;;;;;;14.60;8.80;;;;;;;19.69;80.61;101276.41;107407;1260;99243;-66
2023/09/15 04:12:44;;;;;;;16.90;9.90;;;;;;;19.77;80.39;101279.98;107330;1257;113101;-65
2023/09/15 04:15:13;;;;;;;10.60;8.30;;;;;;;19.81;80.11;101283.20;107363;1257;110019;-66
2023/09/15 04:17:41;;;;;;;18.20;11.80;;;;;;;19.83;79.74;101283.76;107347;1257;108310;-65
2023/09/15 04:20:11;;;;;;;19.20;8.50;;;;;;;19.87;79.70;101284.92;107350;1260;99409;-65
2023/09/15 04:22:41;;;;;;;15.80;8.50;;;;;;;19.91;79.65;101288.30;107361;1257;99079;-66
2023/09/15 04:25:13;;;;;;;10.60;7.60;;;;;;;19.92;79.67;101291.94;107226;1260;112006;-67
2023/09/15 04:27:41;;;;;;;20.80;8.00;;;;;;;19.93;79.64;101292.52;107357;1260;109575;-66
2023/09/15 04:30:10;;;;;;;14.00;7.30;;;;;;;19.97;79.24;101291.76;107241;1257;108163;-68
2023/09/15 04:32:45;;;;;;;11.40;8.00;;;;;;;20.01;79.21;101294.17;107366;1254;99277;-66
2023/09/15 04:35:14;;;;;;;10.60;9.20;;;;;;;20.04;79.18;101295.90;107440;1254;99234;-66
2023/09/15 04:37:42;;;;;;;10.90;8.20;;;;;;;20.07;78.96;101300.95;107421;1255;114057;-65
2023/09/15 04:40:11;;;;;;;16.40;8.00;;;;;;;20.10;78.79;101303.14;107382;1257;109274;-66
2023/09/15 04:42:40;;;;;;;15.10;7.80;;;;;;;20.11;78.32;101302.95;107334;1259;108769;-67
2023/09/15 04:45:10;;;;;;;10.30;8.20;;;;;;;20.14;78.09;101308.92;107320;1260;99109;-67
2023/09/15 04:47:40;;;;;;;14.10;7.20;;;;;;;20.18;78.14;101315.80;107316;1257;99733;-68
2023/09/15 04:50:18;;;;;;;14.20;8.20;;;;;;;20.22;78.07;101318.66;107373;1258;113765;-66
2023/09/15 04:52:46;;;;;;;11.90;7.20;;;;;;;20.25;77.83;101321.56;107340;1259;110069;-67
2023/09/15 04:55:14;;;;;;;12.30;7.60;;;;;;;20.27;77.55;101325.63;107321;1256;108351;-66
2023/09/15 04:57:43;;;;;;;14.60;8.00;;;;;;;20.30;77.50;101322.94;107214;1257;99227;-65
2023/09/15 05:00:23;;;;;;;14.50;7.00;;;;;;;20.35;77.37;101326.66;107284;1257;99783;-63
2023/09/15 05:02:59;;;;;;;;;;;;;;;20.39;77.27;101328.27;107248;1257;112533;-66
2023/09/15 05:05:29;;;;;;;11.10;7.60;;;;;;;20.40;77.07;101331.69;107265;1254;109562;-68
2023/09/15 05:07:57;;;;;;;17.10;8.00;;;;;;;20.41;77.60;101335.95;107357;1254;107078;-67
2023/09/15 05:10:26;;;;;;;11.50;6.80;;;;;;;20.39;77.56;101337.36;107339;1257;99169;-67
2023/09/15 05:12:55;;;;;;;12.80;9.20;;;;;;;20.40;77.29;101339.01;107293;1254;99128;-65
2023/09/15 05:15:24;;;;;;;12.60;7.50;;;;;;;20.41;77.55;101340.67;107393;1257;113639;-67
2023/09/15 05:17:53;;;;;;;10.60;8.10;;;;;;;20.44;77.80;101344.95;107382;1257;109204;-67
2023/09/15 05:20:21;;;;;;;13.90;7.10;;;;;;;20.46;77.82;101346.88;107383;1254;107494;-66
2023/09/15 05:22:49;;;;;;;16.50;7.40;;;;;;;20.47;77.67;101347.79;107256;1254;99298;-68
2023/09/15 05:25:18;;;;;;;11.50;7.70;;;;;;;20.50;77.37;101351.85;107407;1254;99099;-67
2023/09/15 05:27:46;;;;;;;16.10;8.00;;;;;;;20.55;77.04;101354.64;107381;1257;113272;-67
2023/09/15 05:30:15;;;;;;;12.10;7.40;;;;;;;20.63;77.06;101354.02;107394;1254;108750;-68
2023/09/15 05:32:43;;;;;;;14.80;7.50;;;;;;;20.69;76.81;101355.16;107370;1254;108524;-67
2023/09/15 05:35:12;;;;;;;10.90;7.10;;;;;;;20.76;76.56;101354.31;107272;1254;99173;-65
2023/09/15 05:37:40;;;;;;;17.30;8.00;;;;;;;20.84;76.42;101352.10;107270;1254;99131;-66
2023/09/15 05:40:10;;;;;;;11.20;7.60;;;;;;;20.89;76.13;101351.66;107407;1257;112827;-66
2023/09/15 05:42:38;;;;;;;14.20;7.30;;;;;;;20.91;76.19;101354.06;107306;1260;108771;-66
2023/09/15 05:45:08;;;;;;;10.60;7.40;;;;;;;20.91;75.83;101359.41;107360;1254;108635;-66
2023/09/15 05:47:36;;;;;;;13.30;7.70;;;;;;;20.93;75.76;101362.56;107351;1257;99082;-66
2023/09/15 05:50:08;;;;;;;15.00;8.20;;;;;;;20.93;75.34;101366.57;107344;1258;99042;-67
2023/09/15 05:52:36;;;;;;;16.30;8.40;;;;;;;20.95;75.59;101370.63;107416;1254;112024;-67
2023/09/15 05:55:05;;;;;;;15.00;7.80;;;;;;;20.94;75.37;101371.83;107385;1254;109906;-66
2023/09/15 05:57:34;;;;;;;11.90;7.50;;;;;;;20.97;75.23;101374.20;107373;1257;108087;-66
2023/09/15 06:00:04;;;;;;;17.90;8.20;;;;;;;21.01;75.22;101374.66;107382;1254;98926;-67
2023/09/15 06:02:38;;;;;;;13.20;7.90;;;;;;;21.02;74.96;101376.73;107357;1257;99235;-66
2023/09/15 06:05:07;;;;;;;13.70;7.90;;;;;;;21.03;75.05;101382.59;107391;1254;112811;-66
2023/09/15 06:07:36;;;;;;;19.70;8.60;;;;;;;21.04;74.91;101379.88;107393;1254;109902;-68
2023/09/15 06:10:06;;;;;;;10.60;7.50;;;;;;;21.06;74.79;101382.90;107380;1254;107852;-69
2023/09/15 06:12:34;;;;;;;17.30;8.30;;;;;;;21.10;74.94;101388.66;107269;1258;99317;-65
2023/09/15 06:15:03;;;;;;;15.60;8.80;;;;;;;21.06;74.71;101392.78;107432;1254;99157;-66
2023/09/15 06:17:32;;;;;;;19.30;8.40;;;;;;;21.04;74.66;101398.06;107364;1257;112704;-68
2023/09/15 06:20:01;;;;;;;11.30;8.70;;;;;;;21.07;74.79;101399.73;107358;1253;109018;-67
2023/09/15 06:22:29;;;;;;;11.70;8.50;;;;;;;21.07;74.96;101403.06;107322;1254;108464;-66
2023/09/15 06:24:58;;;;;;;12.60;9.10;;;;;;;21.03;75.31;101407.17;107345;1255;99308;-68
2023/09/15 06:27:26;;;;;;;19.00;10.90;;;;;;;20.95;74.96;101403.58;107325;1257;99194;-66
2023/09/15 06:29:55;;;;;;;18.20;9.50;;;;;;;20.99;75.08;101407.67;107327;1258;112212;-66
2023/09/15 06:32:23;;;;;;;19.70;8.80;;;;;;;21.07;75.31;101406.73;107334;1256;108868;-65
2023/09/15 06:34:55;;;;;;;13.20;8.30;;;;;;;21.10;75.05;101406.64;107351;1257;108568;-67
2023/09/15 06:37:23;;;;;;;15.30;8.40;;;;;;;21.11;74.96;101410.15;107281;1254;99164;-67
2023/09/15 06:39:51;;;;;;;17.40;8.40;;;;;;;21.12;74.91;101417.17;107385;1253;99185;-67
2023/09/15 06:42:19;;;;;;;14.70;9.30;;;;;;;21.06;75.13;101417.53;107335;1257;112199;-67
2023/09/15 06:44:48;;;;;;;13.30;8.60;;;;;;;21.02;75.06;101415.33;107338;1257;110072;-65
2023/09/15 06:47:17;;;;;;;15.50;9.10;;;;;;;20.96;75.92;101418.20;107351;1254;108505;-66
2023/09/15 06:49:46;;;;;;;17.40;9.40;;;;;;;20.94;75.55;101422.87;107393;1257;99200;-66
2023/09/15 06:52:14;;;;;;;14.60;10.90;;;;;;;20.90;76.00;101428.61;107387;1257;99200;-69
2023/09/15 06:54:43;;;;;;;17.40;11.80;;;;;;;20.75;76.59;101429.20;107380;1254;113328;-67
2023/09/15 06:57:11;;;;;;;19.80;11.50;;;;;;;20.62;77.12;101437.10;107367;1255;109333;-67
2023/09/15 06:59:40;;;;;;;24.20;12.60;;;;;;;20.58;76.85;101439.30;107377;1254;107293;-69
2023/09/15 07:02:08;;;;;;;18.20;12.80;;;;;;;20.60;77.48;101442.99;107385;1254;99174;-67
2023/09/15 07:04:40;;;;;;;18.70;12.20;;;;;;;20.53;77.49;101448.19;107373;1254;99153;-63
2023/09/15 07:07:08;;;;;;;19.20;13.30;;;;;;;20.47;77.73;101450.58;107404;1254;114219;-66
2023/09/15 07:09:36;;;;;;;18.30;11.70;;;;;;;20.44;77.87;101452.17;107334;1257;109803;-66
2023/09/15 07:12:05;;;;;;;13.80;11.10;;;;;;;20.43;77.71;101450.16;107440;1254;108391;-67
2023/09/15 07:14:34;;;;;;;15.90;11.40;;;;;;;20.44;77.97;101453.60;107461;1257;99928;-67
2023/09/15 07:17:02;;;;;;;18.50;11.50;;;;;;;20.38;78.27;101450.79;107414;1255;99165;-67
2023/09/15 07:19:31;;;;;;;17.00;10.50;;;;;;;20.40;77.88;101450.55;107431;1254;113249;-67
2023/09/15 07:21:59;;;;;;;20.30;11.80;;;;;;;20.45;78.16;101452.52;107459;1254;110040;-67
2023/09/15 07:24:28;;;;;;;19.80;12.60;;;;;;;20.45;78.30;101451.55;107254;1254;108255;-66
2023/09/15 07:26:57;;;;;;;13.40;10.70;;;;;;;20.49;77.86;101457.77;107456;1254;99195;-66
2023/09/15 07:29:28;;;;;;;20.00;12.60;;;;;;;20.57;77.49;101457.89;107424;1257;100492;-65
2023/09/15 07:31:57;;;;;;;15.90;10.60;;;;;;;20.58;77.49;101460.30;107429;1257;113160;-67
2023/09/15 07:34:26;;;;;;;18.80;11.20;;;;;;;20.64;77.16;101462.20;107386;1257;109473;-66
2023/09/15 07:36:55;;;;;;;25.20;10.80;;;;;;;20.74;77.06;101464.14;107450;1254;108271;-69
2023/09/15 07:39:23;;;;;;;25.00;11.20;;;;;;;20.83;76.88;101460.05;107399;1254;99194;-67
2023/09/15 07:41:52;;;;;;;18.90;11.30;;;;;;;20.94;76.75;101458.56;107466;1254;99182;-67
2023/09/15 07:44:20;;;;;;;17.20;11.40;;;;;;;21.07;76.62;101459.95;107428;1254;113058;-66
2023/09/15 07:46:48;;;;;;;17.40;11.50;;;;;;;21.06;76.03;101463.48;107406;1253;108740;-67
2023/09/15 07:49:18;;;;;;;17.20;11.10;;;;;;;21.09;75.91;101462.02;107470;1254;107529;-68
2023/09/15 07:51:48;;;;;;;15.50;11.70;;;;;;;21.17;75.71;101460.34;107415;1254;99223;-65
2023/09/15 07:54:19;;;;;;;21.70;11.50;;;;;;;21.20;75.30;101458.88;107438;1254;99214;-65
2023/09/15 07:56:47;;;;;;;14.70;10.40;;;;;;;21.28;75.34;101461.01;107419;1254;113305;-66
2023/09/15 07:59:15;;;;;;;20.20;11.30;;;;;;;21.36;75.22;101460.63;107440;1254;108565;-66
2023/09/15 08:01:44;;;;;;;19.40;11.10;;;;;;;21.42;74.95;101458.77;107402;1254;107789;-66
2023/09/15 08:04:12;;;;;;;13.40;10.20;;;;;;;21.55;74.99;101458.79;107419;1254;99368;-66
2023/09/15 08:06:40;;;;;;;20.00;11.10;;;;;;;21.69;74.71;101461.64;107428;1254;99071;-66
2023/09/15 08:09:10;;;;;;;18.80;11.10;;;;;;;21.79;74.26;101460.58;107443;1254;113060;-65
2023/09/15 08:11:40;;;;;;;14.10;11.00;;;;;;;21.89;73.94;101466.79;107455;1254;108659;-65
2023/09/15 08:14:08;;;;;;;16.10;10.30;;;;;;;21.96;73.46;101465.57;107382;1254;108562;-66
2023/09/15 08:16:37;;;;;;;12.70;10.00;;;;;;;22.01;73.23;101468.77;107396;1254;99679;-65
2023/09/15 08:19:07;;;;;;;13.80;11.00;;;;;;;22.05;73.15;101466.37;107424;1254;99797;-66
2023/09/15 08:21:35;;;;;;;19.90;10.40;;;;;;;22.13;73.17;101466.27;107450;1254;112932;-66
2023/09/15 08:24:04;;;;;;;15.20;9.80;;;;;;;22.21;73.04;101464.06;107391;1254;109658;-66
2023/09/15 08:26:32;;;;;;;16.90;11.20;;;;;;;22.29;73.03;101467.90;107401;1254;108596;-67
2023/09/15 08:29:14;;;;;;;16.30;10.50;;;;;;;22.40;72.77;101467.63;107255;1258;99183;-67
2023/09/15 08:31:42;;;;;;;17.90;11.80;;;;;;;22.49;72.84;101469.95;107267;1257;99062;-67
2023/09/15 08:34:12;;;;;;;15.80;11.20;;;;;;;22.56;72.63;101470.47;107449;1257;112178;-66
2023/09/15 08:36:41;;;;;;;14.70;11.50;;;;;;;22.65;72.50;101471.95;107444;1254;108977;-67
2023/09/15 08:39:11;;;;;;;17.40;11.70;;;;;;;22.74;72.50;101471.02;107379;1254;108236;-65
2023/09/15 08:41:47;;;;;;;17.30;12.60;;;;;;;22.79;72.17;101469.45;107378;1254;99224;-67
2023/09/15 08:44:17;;;;;;;18.20;12.20;;;;;;;22.89;72.52;101467.74;107427;1254;99073;-67
2023/09/15 08:46:48;;;;;;;13.00;11.50;;;;;;;23.00;72.26;101471.23;107285;1254;111821;-66
2023/09/15 08:49:17;;;;;;;19.70;10.90;;;;;;;23.13;72.11;101467.52;107457;1254;109011;-67
2023/09/15 08:51:46;;;;;;;14.60;11.00;;;;;;;23.28;71.87;101473.30;107408;1254;108259;-64
2023/09/15 08:54:14;;;;;;;16.10;11.80;;;;;;;23.37;70.62;101475.16;107409;1254;99182;-66
2023/09/15 08:56:47;;;;;;;14.30;11.40;;;;;;;23.41;70.35;101471.59;107449;1254;99377;-66
2023/09/15 08:59:16;;;;;;;17.30;10.80;;;;;;;23.49;69.79;101468.70;107379;1256;113604;-66
2023/09/15 09:01:44;;;;;;;19.50;10.90;;;;;;;23.52;69.39;101469.59;107376;1257;109734;-67
2023/09/15 09:04:13;;;;;;;15.90;10.70;;;;;;;23.58;69.01;101470.98;107386;1254;108661;-66
2023/09/15 09:06:42;;;;;;;14.00;10.10;;;;;;;23.63;68.68;101469.39;107419;1254;99181;-66
2023/09/15 09:09:13;;;;;;;12.40;10.00;;;;;;;23.69;68.49;101476.04;107422;1254;99097;-66
2023/09/15 09:11:42;;;;;;;11.30;10.10;;;;;;;23.74;67.82;101471.79;107415;1254;112246;-66
2023/09/15 09:14:12;;;;;;;11.90;8.80;;;;;;;23.82;67.34;101471.46;107466;1254;108775;-66
2023/09/15 09:16:46;;;;;;;15.90;10.30;;;;;;;23.91;67.21;101472.59;107475;1254;108533;-64
2023/09/15 09:19:15;;;;;;;11.50;10.20;;;;;;;24.01;66.13;101475.00;107367;1254;99188;-64
2023/09/15 09:21:45;;;;;;;17.80;10.80;;;;;;;24.08;66.12;101475.52;107374;1254;99829;-67
2023/09/15 09:24:14;;;;;;;13.20;9.50;;;;;;;24.20;66.10;101476.23;107407;1254;112611;-66
2023/09/15 09:26:56;;;;;;;14.10;10.40;;;;;;;24.29;65.25;101479.05;107415;1253;110230;-65
2023/09/15 09:29:27;;;;;;;14.00;10.70;;;;;;;24.39;64.96;101478.98;107387;1254;106889;-66
2023/09/15 09:31:56;;;;;;;14.30;10.50;;;;;;;24.46;64.21;101475.85;107399;1254;99258;-66
2023/09/15 09:34:24;;;;;;;14.70;9.50;;;;;;;24.53;64.15;101471.91;107371;1254;99370;-66
2023/09/15 09:37:12;;;;;;;15.50;9.60;;;;;;;24.63;63.37;101472.23;107406;1254;112548;-65
2023/09/15 09:39:41;;;;;;;11.80;9.40;;;;;;;24.70;63.30;101476.03;107385;1254;110025;-64
2023/09/15 09:42:10;;;;;;;14.20;9.70;;;;;;;24.83;63.05;101471.85;107396;1254;108078;-68
2023/09/15 09:44:39;;;;;;;12.80;9.30;;;;;;;24.95;61.64;101472.05;107365;1254;99224;-65
2023/09/15 09:47:09;;;;;;;13.20;9.50;;;;;;;25.04;61.72;101466.89;107356;1256;99096;-65
2023/09/15 09:49:40;;;;;;;11.60;9.60;;;;;;;25.25;61.18;101466.41;107370;1259;112638;-64
2023/09/15 09:52:09;;;;;;;17.40;9.30;;;;;;;25.56;59.52;101469.34;107402;1254;109724;-64
2023/09/15 09:54:50;;;;;;;12.90;9.20;;;;;;;26.24;58.29;101461.36;104126;1292;636034;-65
2023/09/15 09:57:19;;;;;;;15.30;8.80;;;;;;;26.66;56.99;101460.23;106608;1266;95833;-64
2023/09/15 09:59:48;;;;;;;11.50;8.80;;;;;;;26.80;56.07;101460.55;106651;1267;95842;-65
2023/09/15 10:02:16;;;;;;;11.10;7.90;;;;;;;26.77;54.67;101459.89;106626;1267;108230;-67
2023/09/15 10:04:45;;;;;;;19.10;9.50;;;;;;;26.58;53.93;101459.93;106583;1270;108813;-64
2023/09/15 10:07:14;;;;;;;14.70;9.50;;;;;;;26.33;54.86;101459.68;106083;1266;681619;-65
2023/09/15 10:09:44;;;;;;;10.10;8.50;;;;;;;26.17;55.28;101460.98;106748;1264;95822;-66
2023/09/15 10:12:14;;;;;;;13.10;10.00;;;;;;;26.02;55.20;101457.02;106728;1264;95810;-66
2023/09/15 10:14:42;;;;;;;11.10;9.70;;;;;;;25.89;55.48;101460.83;106740;1264;108099;-65
2023/09/15 10:17:12;;;;;;;14.40;8.80;;;;;;;25.74;55.63;101462.23;107291;1257;109673;-65
2023/09/15 10:19:42;;;;;;;16.40;10.10;;;;;;;25.74;55.97;101463.50;107185;1260;108236;-64
2023/09/15 10:22:11;;;;;;;12.60;9.30;;;;;;;25.61;55.67;101463.73;107283;1257;95819;-66
2023/09/15 10:24:47;;;;;;;11.00;9.60;;;;;;;25.39;56.11;101462.77;107272;1260;95788;-65
2023/09/15 10:27:17;;;;;;;17.20;10.70;;;;;;;25.20;56.55;101464.82;107257;1257;109637;-66
2023/09/15 10:29:46;;;;;;;18.30;9.70;;;;;;;25.06;57.06;101468.25;107249;1257;109912;-66
2023/09/15 10:32:18;;;;;;;11.70;9.60;;;;;;;24.93;57.54;101473.61;107261;1260;108798;-65
2023/09/15 10:34:48;;;;;;;16.00;11.00;;;;;;;24.81;57.87;101474.73;107216;1257;95980;-64
2023/09/15 10:37:16;;;;;;;15.20;9.90;;;;;;;24.70;58.36;101476.10;107280;1257;95794;-65
2023/09/15 10:39:44;;;;;;;17.60;10.50;;;;;;;24.58;58.66;101475.66;107251;1257;108832;-64
2023/09/15 10:42:15;;;;;;;18.80;10.80;;;;;;;24.55;59.09;101476.61;107302;1257;109057;-66
2023/09/15 10:44:44;;;;;;;16.80;11.00;;;;;;;24.55;59.05;101475.29;107243;1257;108369;-66
2023/09/15 10:47:17;;;;;;;15.70;10.60;;;;;;;24.59;59.18;101473.67;107249;1257;95867;-66
2023/09/15 10:49:50;;;;;;;;;;;;;;;24.71;59.14;101473.58;107280;1257;95810;-65
2023/09/15 10:52:36;;;;;;;18.10;11.10;;;;;;;24.88;58.99;101467.83;107245;1257;108702;-63
2023/09/15 10:55:05;;;;;;;11.70;10.10;;;;;;;25.32;57.84;101463.42;107271;1257;109279;-66
2023/09/15 10:57:35;;;;;;;17.10;10.40;;;;;;;25.61;57.78;101458.79;107270;1257;108254;-64
2023/09/15 11:00:09;;;;;;;14.90;10.20;;;;;;;25.69;57.14;101460.61;107251;1257;96050;-66
2023/09/15 11:02:39;;;;;;;12.70;9.90;;;;;;;25.61;56.28;101456.33;107228;1257;95864;-66
2023/09/15 11:05:08;;;;;;;15.50;9.90;;;;;;;25.48;56.42;101453.21;107208;1256;108268;-68
2023/09/15 11:07:37;;;;;;;14.50;9.60;;;;;;;25.45;56.73;101454.20;107165;1257;109976;-65
2023/09/15 11:10:06;;;;;;;13.60;9.90;;;;;;;25.46;56.84;101452.41;107175;1257;107088;-65
2023/09/15 11:12:35;;;;;;;12.60;9.90;;;;;;;25.46;57.05;101452.80;107157;1257;95800;-66
2023/09/15 11:15:04;;;;;;;12.80;9.70;;;;;;;25.53;57.14;101452.81;107218;1257;97293;-64